Terminal Aerodrome Forecast
Issued by NWS Oklahoma City, OK

Home | Current Version | Previous Version | Text Only | Print | Product List | Glossary On
Versions: 1 2 3 4 5 6 7 8 9 10 11 12 13 14 15 16 17 18 19 20 21 22 23 24 25 26
000
FTUS44 KOUN 171743
TAFOUN
TAF
KOUN 171743Z 1718/1818 12010KT P6SM OVC060
      TEMPO 1718/1722 5SM -RA OVC040
     FM172200 12009KT 4SM -RA BR OVC020
     FM180100 14007KT 3SM -RA BR OVC009
     FM180600 15006KT 1SM -DZ BR OVC003
      TEMPO 1811/1815 1/2SM FG OVC001=

USA.gov is the U.S. government's official web portal to all federal, state and local government web resources and services.